sensor_id;sensor_type;location;lat;lon;timestamp;P1;durP1;ratioP1;P2;durP2;ratioP2
20012;SDS011;10167;42.852;23.042;2023-12-20T00:01:52;2.85;;;2.65;;
20012;SDS011;10167;42.852;23.042;2023-12-20T00:04:26;2.00;;;1.90;;
20012;SDS011;10167;42.852;23.042;2023-12-20T00:06:56;3.63;;;3.33;;
20012;SDS011;10167;42.852;23.042;2023-12-20T00:09:28;8.80;;;1.98;;
20012;SDS011;10167;42.852;23.042;2023-12-20T00:11:58;2.30;;;1.05;;
20012;SDS011;10167;42.852;23.042;2023-12-20T00:14:27;3.80;;;3.05;;
20012;SDS011;10167;42.852;23.042;2023-12-20T00:16:57;3.92;;;1.67;;
20012;SDS011;10167;42.852;23.042;2023-12-20T00:19:29;9.05;;;2.88;;
20012;SDS011;10167;42.852;23.042;2023-12-20T00:21:59;3.03;;;2.72;;
20012;SDS011;10167;42.852;23.042;2023-12-20T00:24:28;2.17;;;1.98;;
20012;SDS011;10167;42.852;23.042;2023-12-20T00:26:58;4.13;;;2.95;;
20012;SDS011;10167;42.852;23.042;2023-12-20T00:29:28;2.78;;;2.60;;
20012;SDS011;10167;42.852;23.042;2023-12-20T00:31:58;8.40;;;3.33;;
20012;SDS011;10167;42.852;23.042;2023-12-20T00:34:29;6.18;;;3.55;;
20012;SDS011;10167;42.852;23.042;2023-12-20T00:36:59;5.35;;;4.65;;
20012;SDS011;10167;42.852;23.042;2023-12-20T00:39:29;2.28;;;2.13;;
20012;SDS011;10167;42.852;23.042;2023-12-20T00:42:00;5.18;;;3.00;;
20012;SDS011;10167;42.852;23.042;2023-12-20T00:44:30;3.28;;;2.05;;
20012;SDS011;10167;42.852;23.042;2023-12-20T00:47:00;2.22;;;1.75;;
20012;SDS011;10167;42.852;23.042;2023-12-20T00:49:31;2.97;;;2.60;;
20012;SDS011;10167;42.852;23.042;2023-12-20T00:52:02;3.45;;;2.88;;
20012;SDS011;10167;42.852;23.042;2023-12-20T00:54:32;1.85;;;1.75;;
20012;SDS011;10167;42.852;23.042;2023-12-20T00:57:02;4.03;;;3.05;;
20012;SDS011;10167;42.852;23.042;2023-12-20T00:59:33;6.40;;;3.33;;
20012;SDS011;10167;42.852;23.042;2023-12-20T01:02:03;1.88;;;1.77;;
20012;SDS011;10167;42.852;23.042;2023-12-20T01:04:34;1.13;;;0.93;;
20012;SDS011;10167;42.852;23.042;2023-12-20T01:07:04;3.20;;;2.53;;
20012;SDS011;10167;42.852;23.042;2023-12-20T01:09:35;2.10;;;2.00;;
20012;SDS011;10167;42.852;23.042;2023-12-20T01:12:04;8.60;;;2.33;;
20012;SDS011;10167;42.852;23.042;2023-12-20T01:14:34;3.35;;;1.35;;
20012;SDS011;10167;42.852;23.042;2023-12-20T01:17:04;3.53;;;2.25;;
20012;SDS011;10167;42.852;23.042;2023-12-20T01:19:36;2.78;;;1.48;;
20012;SDS011;10167;42.852;23.042;2023-12-20T01:22:06;4.50;;;1.70;;
20012;SDS011;10167;42.852;23.042;2023-12-20T01:24:38;1.42;;;1.33;;
20012;SDS011;10167;42.852;23.042;2023-12-20T01:27:08;3.13;;;2.85;;
20012;SDS011;10167;42.852;23.042;2023-12-20T01:29:39;3.47;;;2.17;;
20012;SDS011;10167;42.852;23.042;2023-12-20T01:32:10;3.65;;;3.33;;
20012;SDS011;10167;42.852;23.042;2023-12-20T01:34:41;2.38;;;1.63;;
20012;SDS011;10167;42.852;23.042;2023-12-20T01:37:12;1.58;;;1.48;;
20012;SDS011;10167;42.852;23.042;2023-12-20T01:39:42;2.38;;;1.63;;
20012;SDS011;10167;42.852;23.042;2023-12-20T01:42:13;1.30;;;0.80;;
20012;SDS011;10167;42.852;23.042;2023-12-20T01:44:42;2.83;;;2.47;;
20012;SDS011;10167;42.852;23.042;2023-12-20T01:47:11;1.25;;;1.15;;
20012;SDS011;10167;42.852;23.042;2023-12-20T01:49:43;5.57;;;2.22;;
20012;SDS011;10167;42.852;23.042;2023-12-20T01:52:13;2.50;;;1.92;;
20012;SDS011;10167;42.852;23.042;2023-12-20T01:54:43;3.22;;;3.00;;
20012;SDS011;10167;42.852;23.042;2023-12-20T01:57:14;2.33;;;1.70;;
20012;SDS011;10167;42.852;23.042;2023-12-20T01:59:44;3.78;;;2.30;;
20012;SDS011;10167;42.852;23.042;2023-12-20T02:02:14;1.98;;;1.45;;
20012;SDS011;10167;42.852;23.042;2023-12-20T02:04:45;7.25;;;2.20;;
20012;SDS011;10167;42.852;23.042;2023-12-20T02:07:15;3.00;;;2.42;;
20012;SDS011;10167;42.852;23.042;2023-12-20T02:09:46;5.97;;;2.92;;
20012;SDS011;10167;42.852;23.042;2023-12-20T02:12:16;4.10;;;3.10;;
20012;SDS011;10167;42.852;23.042;2023-12-20T02:14:47;8.57;;;5.20;;
20012;SDS011;10167;42.852;23.042;2023-12-20T02:17:17;3.65;;;2.42;;
20012;SDS011;10167;42.852;23.042;2023-12-20T02:19:49;5.45;;;3.03;;
20012;SDS011;10167;42.852;23.042;2023-12-20T02:22:21;1.48;;;0.82;;
20012;SDS011;10167;42.852;23.042;2023-12-20T02:24:50;2.75;;;2.20;;
20012;SDS011;10167;42.852;23.042;2023-12-20T02:27:23;2.28;;;2.08;;
20012;SDS011;10167;42.852;23.042;2023-12-20T02:29:53;4.57;;;3.13;;
20012;SDS011;10167;42.852;23.042;2023-12-20T02:32:22;3.72;;;1.98;;
20012;SDS011;10167;42.852;23.042;2023-12-20T02:34:55;1.60;;;1.50;;
20012;SDS011;10167;42.852;23.042;2023-12-20T02:37:26;1.98;;;1.85;;
20012;SDS011;10167;42.852;23.042;2023-12-20T02:39:56;10.85;;;1.90;;
20012;SDS011;10167;42.852;23.042;2023-12-20T02:42:26;2.22;;;1.40;;
20012;SDS011;10167;42.852;23.042;2023-12-20T02:44:56;2.90;;;2.65;;
20012;SDS011;10167;42.852;23.042;2023-12-20T02:47:30;1.77;;;1.67;;
20012;SDS011;10167;42.852;23.042;2023-12-20T02:50:01;7.25;;;3.30;;
20012;SDS011;10167;42.852;23.042;2023-12-20T02:52:32;6.00;;;3.17;;
20012;SDS011;10167;42.852;23.042;2023-12-20T02:55:02;3.20;;;1.67;;
20012;SDS011;10167;42.852;23.042;2023-12-20T02:57:32;3.70;;;2.90;;
20012;SDS011;10167;42.852;23.042;2023-12-20T03:00:06;2.95;;;2.60;;
20012;SDS011;10167;42.852;23.042;2023-12-20T03:02:36;6.57;;;2.38;;
20012;SDS011;10167;42.852;23.042;2023-12-20T03:05:06;6.68;;;2.78;;
20012;SDS011;10167;42.852;23.042;2023-12-20T03:07:39;3.40;;;2.53;;
20012;SDS011;10167;42.852;23.042;2023-12-20T03:10:10;1.13;;;1.13;;
20012;SDS011;10167;42.852;23.042;2023-12-20T03:12:49;2.50;;;2.30;;
20012;SDS011;10167;42.852;23.042;2023-12-20T03:15:20;2.30;;;2.17;;
20012;SDS011;10167;42.852;23.042;2023-12-20T03:17:49;5.95;;;3.60;;
20012;SDS011;10167;42.852;23.042;2023-12-20T03:20:19;3.90;;;3.20;;
20012;SDS011;10167;42.852;23.042;2023-12-20T03:22:50;3.47;;;3.17;;
20012;SDS011;10167;42.852;23.042;2023-12-20T03:25:22;2.05;;;1.90;;
20012;SDS011;10167;42.852;23.042;2023-12-20T03:27:52;4.32;;;2.28;;
20012;SDS011;10167;42.852;23.042;2023-12-20T03:30:22;4.70;;;2.53;;
20012;SDS011;10167;42.852;23.042;2023-12-20T03:32:51;5.68;;;3.38;;
20012;SDS011;10167;42.852;23.042;2023-12-20T03:35:21;11.90;;;5.47;;
20012;SDS011;10167;42.852;23.042;2023-12-20T03:37:53;3.70;;;3.40;;
20012;SDS011;10167;42.852;23.042;2023-12-20T03:40:25;4.82;;;2.05;;
20012;SDS011;10167;42.852;23.042;2023-12-20T03:42:55;2.80;;;2.28;;
20012;SDS011;10167;42.852;23.042;2023-12-20T03:45:24;4.95;;;3.75;;
20012;SDS011;10167;42.852;23.042;2023-12-20T03:47:54;4.40;;;3.58;;
20012;SDS011;10167;42.852;23.042;2023-12-20T03:50:24;2.00;;;1.90;;
20012;SDS011;10167;42.852;23.042;2023-12-20T03:52:56;10.18;;;2.78;;
20012;SDS011;10167;42.852;23.042;2023-12-20T03:55:26;3.83;;;1.63;;
20012;SDS011;10167;42.852;23.042;2023-12-20T03:57:56;5.95;;;4.30;;
20012;SDS011;10167;42.852;23.042;2023-12-20T04:00:26;6.20;;;3.92;;
20012;SDS011;10167;42.852;23.042;2023-12-20T04:02:56;1.35;;;1.25;;
20012;SDS011;10167;42.852;23.042;2023-12-20T04:05:25;3.90;;;2.13;;
20012;SDS011;10167;42.852;23.042;2023-12-20T04:08:01;3.20;;;2.85;;
20012;SDS011;10167;42.852;23.042;2023-12-20T04:10:31;3.00;;;2.23;;
20012;SDS011;10167;42.852;23.042;2023-12-20T04:13:01;8.82;;;3.20;;
20012;SDS011;10167;42.852;23.042;2023-12-20T04:15:31;4.85;;;2.63;;
20012;SDS011;10167;42.852;23.042;2023-12-20T04:18:00;3.92;;;3.58;;
20012;SDS011;10167;42.852;23.042;2023-12-20T04:20:32;7.63;;;3.58;;
20012;SDS011;10167;42.852;23.042;2023-12-20T04:23:03;2.67;;;2.47;;
20012;SDS011;10167;42.852;23.042;2023-12-20T04:25:32;3.85;;;3.20;;
20012;SDS011;10167;42.852;23.042;2023-12-20T04:28:02;4.60;;;3.80;;
20012;SDS011;10167;42.852;23.042;2023-12-20T04:30:32;5.00;;;4.50;;
20012;SDS011;10167;42.852;23.042;2023-12-20T04:33:03;3.45;;;3.15;;
20012;SDS011;10167;42.852;23.042;2023-12-20T04:35:33;2.20;;;2.00;;
20012;SDS011;10167;42.852;23.042;2023-12-20T04:38:03;3.55;;;3.05;;
20012;SDS011;10167;42.852;23.042;2023-12-20T04:40:33;8.00;;;5.50;;
20012;SDS011;10167;42.852;23.042;2023-12-20T04:43:03;3.38;;;2.88;;
20012;SDS011;10167;42.852;23.042;2023-12-20T04:45:33;3.22;;;2.95;;
20012;SDS011;10167;42.852;23.042;2023-12-20T04:48:03;9.48;;;4.70;;
20012;SDS011;10167;42.852;23.042;2023-12-20T04:50:34;5.03;;;4.57;;
20012;SDS011;10167;42.852;23.042;2023-12-20T04:53:06;5.65;;;3.55;;
20012;SDS011;10167;42.852;23.042;2023-12-20T04:55:35;6.18;;;3.70;;
20012;SDS011;10167;42.852;23.042;2023-12-20T04:58:06;10.90;;;9.75;;
20012;SDS011;10167;42.852;23.042;2023-12-20T05:00:35;7.78;;;4.97;;
20012;SDS011;10167;42.852;23.042;2023-12-20T05:03:05;3.58;;;3.25;;
20012;SDS011;10167;42.852;23.042;2023-12-20T05:05:37;5.65;;;4.97;;
20012;SDS011;10167;42.852;23.042;2023-12-20T05:08:10;7.32;;;2.70;;
20012;SDS011;10167;42.852;23.042;2023-12-20T05:10:40;4.50;;;3.27;;
20012;SDS011;10167;42.852;23.042;2023-12-20T05:13:09;3.42;;;2.65;;
20012;SDS011;10167;42.852;23.042;2023-12-20T05:15:39;2.60;;;1.50;;
20012;SDS011;10167;42.852;23.042;2023-12-20T05:18:09;3.00;;;2.75;;
20012;SDS011;10167;42.852;23.042;2023-12-20T05:20:39;3.10;;;2.30;;
20012;SDS011;10167;42.852;23.042;2023-12-20T05:23:10;5.95;;;2.40;;
20012;SDS011;10167;42.852;23.042;2023-12-20T05:25:40;1.38;;;1.27;;
20012;SDS011;10167;42.852;23.042;2023-12-20T05:28:10;5.65;;;1.85;;
20012;SDS011;10167;42.852;23.042;2023-12-20T05:30:42;9.07;;;2.25;;
20012;SDS011;10167;42.852;23.042;2023-12-20T05:33:12;1.50;;;1.38;;
20012;SDS011;10167;42.852;23.042;2023-12-20T05:35:41;22.80;;;2.50;;
20012;SDS011;10167;42.852;23.042;2023-12-20T05:38:12;5.00;;;2.55;;
20012;SDS011;10167;42.852;23.042;2023-12-20T05:40:42;2.25;;;1.73;;
20012;SDS011;10167;42.852;23.042;2023-12-20T05:43:11;6.78;;;2.10;;
20012;SDS011;10167;42.852;23.042;2023-12-20T05:45:41;0.63;;;0.63;;
20012;SDS011;10167;42.852;23.042;2023-12-20T05:48:11;1.70;;;1.60;;
20012;SDS011;10167;42.852;23.042;2023-12-20T05:50:41;1.15;;;1.15;;
20012;SDS011;10167;42.852;23.042;2023-12-20T05:53:10;1.98;;;1.70;;
20012;SDS011;10167;42.852;23.042;2023-12-20T05:55:42;6.85;;;2.63;;
20012;SDS011;10167;42.852;23.042;2023-12-20T05:58:13;2.53;;;2.33;;
20012;SDS011;10167;42.852;23.042;2023-12-20T06:00:44;1.88;;;1.77;;
20012;SDS011;10167;42.852;23.042;2023-12-20T06:03:16;2.83;;;2.65;;
20012;SDS011;10167;42.852;23.042;2023-12-20T06:05:45;2.47;;;2.25;;
20012;SDS011;10167;42.852;23.042;2023-12-20T06:08:16;4.18;;;3.72;;
20012;SDS011;10167;42.852;23.042;2023-12-20T06:10:46;2.97;;;2.55;;
20012;SDS011;10167;42.852;23.042;2023-12-20T06:13:15;6.03;;;3.83;;
20012;SDS011;10167;42.852;23.042;2023-12-20T06:15:45;4.10;;;3.80;;
20012;SDS011;10167;42.852;23.042;2023-12-20T06:18:14;4.20;;;1.98;;
20012;SDS011;10167;42.852;23.042;2023-12-20T06:20:44;2.58;;;2.40;;
20012;SDS011;10167;42.852;23.042;2023-12-20T06:23:14;4.25;;;3.95;;
20012;SDS011;10167;42.852;23.042;2023-12-20T06:25:45;3.70;;;3.35;;
20012;SDS011;10167;42.852;23.042;2023-12-20T06:28:15;3.40;;;3.10;;
20012;SDS011;10167;42.852;23.042;2023-12-20T06:30:44;4.25;;;3.80;;
20012;SDS011;10167;42.852;23.042;2023-12-20T06:33:15;12.27;;;3.60;;
20012;SDS011;10167;42.852;23.042;2023-12-20T06:35:46;10.48;;;4.13;;
20012;SDS011;10167;42.852;23.042;2023-12-20T06:38:15;5.03;;;3.72;;
20012;SDS011;10167;42.852;23.042;2023-12-20T06:40:48;4.43;;;4.05;;
20012;SDS011;10167;42.852;23.042;2023-12-20T06:43:18;8.20;;;6.43;;
20012;SDS011;10167;42.852;23.042;2023-12-20T06:46:07;6.07;;;5.32;;
20012;SDS011;10167;42.852;23.042;2023-12-20T06:48:36;15.35;;;7.45;;
20012;SDS011;10167;42.852;23.042;2023-12-20T06:51:10;6.22;;;5.43;;
20012;SDS011;10167;42.852;23.042;2023-12-20T06:53:42;3.30;;;3.00;;
20012;SDS011;10167;42.852;23.042;2023-12-20T06:56:14;5.55;;;5.05;;
20012;SDS011;10167;42.852;23.042;2023-12-20T06:58:46;14.38;;;4.55;;
20012;SDS011;10167;42.852;23.042;2023-12-20T07:01:17;3.15;;;2.95;;
20012;SDS011;10167;42.852;23.042;2023-12-20T07:03:47;4.10;;;3.72;;
20012;SDS011;10167;42.852;23.042;2023-12-20T07:06:17;9.43;;;4.10;;
20012;SDS011;10167;42.852;23.042;2023-12-20T07:08:46;4.97;;;4.22;;
20012;SDS011;10167;42.852;23.042;2023-12-20T07:11:17;17.58;;;5.50;;
20012;SDS011;10167;42.852;23.042;2023-12-20T07:13:47;2.25;;;2.00;;
20012;SDS011;10167;42.852;23.042;2023-12-20T07:16:17;3.25;;;3.03;;
20012;SDS011;10167;42.852;23.042;2023-12-20T07:18:46;5.10;;;4.15;;
20012;SDS011;10167;42.852;23.042;2023-12-20T07:21:17;3.17;;;2.88;;
20012;SDS011;10167;42.852;23.042;2023-12-20T07:23:46;9.40;;;4.22;;
20012;SDS011;10167;42.852;23.042;2023-12-20T07:26:18;6.15;;;5.63;;
20012;SDS011;10167;42.852;23.042;2023-12-20T07:28:48;5.72;;;5.22;;
20012;SDS011;10167;42.852;23.042;2023-12-20T07:31:18;34.92;;;9.30;;
20012;SDS011;10167;42.852;23.042;2023-12-20T07:33:48;9.73;;;5.85;;
20012;SDS011;10167;42.852;23.042;2023-12-20T07:36:19;8.55;;;7.60;;
20012;SDS011;10167;42.852;23.042;2023-12-20T07:38:49;8.65;;;6.10;;
20012;SDS011;10167;42.852;23.042;2023-12-20T07:41:19;9.05;;;5.55;;
20012;SDS011;10167;42.852;23.042;2023-12-20T07:43:51;6.95;;;6.35;;
20012;SDS011;10167;42.852;23.042;2023-12-20T07:46:20;7.70;;;6.95;;
20012;SDS011;10167;42.852;23.042;2023-12-20T07:48:51;5.43;;;4.90;;
20012;SDS011;10167;42.852;23.042;2023-12-20T07:51:21;14.23;;;10.70;;
20012;SDS011;10167;42.852;23.042;2023-12-20T07:53:51;14.95;;;6.75;;
20012;SDS011;10167;42.852;23.042;2023-12-20T07:56:22;9.07;;;7.28;;
20012;SDS011;10167;42.852;23.042;2023-12-20T07:58:52;6.75;;;6.05;;
20012;SDS011;10167;42.852;23.042;2023-12-20T08:01:23;11.32;;;6.32;;
20012;SDS011;10167;42.852;23.042;2023-12-20T08:03:54;10.93;;;6.28;;
20012;SDS011;10167;42.852;23.042;2023-12-20T08:06:24;6.30;;;5.47;;
20012;SDS011;10167;42.852;23.042;2023-12-20T08:08:54;8.90;;;5.70;;
20012;SDS011;10167;42.852;23.042;2023-12-20T08:11:34;9.60;;;6.15;;
20012;SDS011;10167;42.852;23.042;2023-12-20T08:14:03;10.75;;;6.00;;
20012;SDS011;10167;42.852;23.042;2023-12-20T08:16:33;11.27;;;8.02;;
20012;SDS011;10167;42.852;23.042;2023-12-20T08:19:03;10.13;;;7.63;;
20012;SDS011;10167;42.852;23.042;2023-12-20T08:21:32;7.75;;;4.65;;
20012;SDS011;10167;42.852;23.042;2023-12-20T08:24:05;7.13;;;6.38;;
20012;SDS011;10167;42.852;23.042;2023-12-20T08:26:38;9.80;;;7.90;;
20012;SDS011;10167;42.852;23.042;2023-12-20T08:29:07;10.98;;;8.82;;
20012;SDS011;10167;42.852;23.042;2023-12-20T08:31:37;12.82;;;8.38;;
20012;SDS011;10167;42.852;23.042;2023-12-20T08:34:08;7.93;;;7.00;;
20012;SDS011;10167;42.852;23.042;2023-12-20T08:36:40;5.53;;;4.87;;
20012;SDS011;10167;42.852;23.042;2023-12-20T08:39:09;9.45;;;7.47;;
20012;SDS011;10167;42.852;23.042;2023-12-20T08:41:40;5.30;;;4.82;;
20012;SDS011;10167;42.852;23.042;2023-12-20T08:44:11;4.88;;;4.45;;
20012;SDS011;10167;42.852;23.042;2023-12-20T08:46:40;11.20;;;6.20;;
20012;SDS011;10167;42.852;23.042;2023-12-20T08:49:10;7.72;;;5.78;;
20012;SDS011;10167;42.852;23.042;2023-12-20T08:51:40;19.95;;;3.00;;
20012;SDS011;10167;42.852;23.042;2023-12-20T08:54:11;14.70;;;3.55;;
20012;SDS011;10167;42.852;23.042;2023-12-20T08:56:42;3.03;;;2.80;;
20012;SDS011;10167;42.852;23.042;2023-12-20T08:59:12;4.05;;;2.88;;
20012;SDS011;10167;42.852;23.042;2023-12-20T09:01:41;1.52;;;1.42;;
20012;SDS011;10167;42.852;23.042;2023-12-20T09:04:11;2.53;;;2.33;;
20012;SDS011;10167;42.852;23.042;2023-12-20T09:06:40;7.88;;;2.90;;
20012;SDS011;10167;42.852;23.042;2023-12-20T09:09:10;2.13;;;1.98;;
20012;SDS011;10167;42.852;23.042;2023-12-20T09:11:42;5.70;;;4.05;;
20012;SDS011;10167;42.852;23.042;2023-12-20T09:14:13;5.32;;;3.25;;
20012;SDS011;10167;42.852;23.042;2023-12-20T09:16:43;4.30;;;3.13;;
20012;SDS011;10167;42.852;23.042;2023-12-20T09:19:13;4.65;;;3.65;;
20012;SDS011;10167;42.852;23.042;2023-12-20T09:21:43;2.10;;;1.98;;
20012;SDS011;10167;42.852;23.042;2023-12-20T09:24:12;2.63;;;1.98;;
20012;SDS011;10167;42.852;23.042;2023-12-20T09:26:44;3.33;;;3.03;;
20012;SDS011;10167;42.852;23.042;2023-12-20T09:29:14;6.20;;;4.68;;
20012;SDS011;10167;42.852;23.042;2023-12-20T09:31:44;7.22;;;3.67;;
20012;SDS011;10167;42.852;23.042;2023-12-20T09:34:14;4.78;;;3.20;;
20012;SDS011;10167;42.852;23.042;2023-12-20T09:36:45;4.85;;;3.70;;
20012;SDS011;10167;42.852;23.042;2023-12-20T09:39:16;5.68;;;2.60;;
20012;SDS011;10167;42.852;23.042;2023-12-20T09:41:51;14.68;;;6.63;;
20012;SDS011;10167;42.852;23.042;2023-12-20T09:44:29;4.80;;;3.53;;
20012;SDS011;10167;42.852;23.042;2023-12-20T09:47:02;5.80;;;3.42;;
20012;SDS011;10167;42.852;23.042;2023-12-20T09:49:33;5.95;;;3.85;;
20012;SDS011;10167;42.852;23.042;2023-12-20T09:52:03;10.85;;;5.00;;
20012;SDS011;10167;42.852;23.042;2023-12-20T09:54:36;4.68;;;3.78;;
20012;SDS011;10167;42.852;23.042;2023-12-20T09:57:08;6.80;;;4.43;;
20012;SDS011;10167;42.852;23.042;2023-12-20T09:59:38;5.85;;;3.15;;
20012;SDS011;10167;42.852;23.042;2023-12-20T10:02:10;5.30;;;2.55;;
20012;SDS011;10167;42.852;23.042;2023-12-20T10:04:46;4.75;;;4.35;;
20012;SDS011;10167;42.852;23.042;2023-12-20T10:09:47;2.47;;;2.35;;
20012;SDS011;10167;42.852;23.042;2023-12-20T10:12:19;6.35;;;3.83;;
20012;SDS011;10167;42.852;23.042;2023-12-20T10:14:50;8.10;;;6.70;;
20012;SDS011;10167;42.852;23.042;2023-12-20T10:17:19;5.20;;;4.15;;
20012;SDS011;10167;42.852;23.042;2023-12-20T10:19:51;4.93;;;4.50;;
20012;SDS011;10167;42.852;23.042;2023-12-20T10:22:24;3.58;;;2.80;;
20012;SDS011;10167;42.852;23.042;2023-12-20T10:24:53;4.15;;;3.13;;
20012;SDS011;10167;42.852;23.042;2023-12-20T10:27:27;2.28;;;2.17;;
20012;SDS011;10167;42.852;23.042;2023-12-20T10:29:58;4.18;;;3.22;;
20012;SDS011;10167;42.852;23.042;2023-12-20T10:32:29;8.35;;;4.28;;
20012;SDS011;10167;42.852;23.042;2023-12-20T10:34:59;5.95;;;3.38;;
20012;SDS011;10167;42.852;23.042;2023-12-20T10:37:31;4.85;;;2.13;;
20012;SDS011;10167;42.852;23.042;2023-12-20T10:40:04;5.22;;;3.22;;
20012;SDS011;10167;42.852;23.042;2023-12-20T10:42:37;9.20;;;5.03;;
20012;SDS011;10167;42.852;23.042;2023-12-20T10:45:09;12.18;;;3.67;;
20012;SDS011;10167;42.852;23.042;2023-12-20T10:47:39;4.32;;;4.03;;
20012;SDS011;10167;42.852;23.042;2023-12-20T10:50:11;5.75;;;3.25;;
20012;SDS011;10167;42.852;23.042;2023-12-20T10:52:40;6.65;;;4.05;;
20012;SDS011;10167;42.852;23.042;2023-12-20T10:55:11;3.08;;;2.78;;
20012;SDS011;10167;42.852;23.042;2023-12-20T10:57:43;10.35;;;4.40;;
20012;SDS011;10167;42.852;23.042;2023-12-20T11:00:18;10.05;;;4.40;;
20012;SDS011;10167;42.852;23.042;2023-12-20T11:02:49;8.30;;;5.03;;
20012;SDS011;10167;42.852;23.042;2023-12-20T11:05:24;15.10;;;8.90;;
20012;SDS011;10167;42.852;23.042;2023-12-20T11:08:06;9.23;;;6.72;;
20012;SDS011;10167;42.852;23.042;2023-12-20T11:10:39;11.23;;;4.13;;
20012;SDS011;10167;42.852;23.042;2023-12-20T11:13:16;7.53;;;3.80;;
20012;SDS011;10167;42.852;23.042;2023-12-20T11:15:49;3.05;;;2.65;;
20012;SDS011;10167;42.852;23.042;2023-12-20T11:18:19;11.07;;;5.43;;
20012;SDS011;10167;42.852;23.042;2023-12-20T11:20:49;5.47;;;4.00;;
20012;SDS011;10167;42.852;23.042;2023-12-20T11:23:19;5.50;;;5.00;;
20012;SDS011;10167;42.852;23.042;2023-12-20T11:25:51;10.25;;;5.75;;
20012;SDS011;10167;42.852;23.042;2023-12-20T11:28:24;5.50;;;3.60;;
20012;SDS011;10167;42.852;23.042;2023-12-20T11:30:55;5.15;;;3.28;;
20012;SDS011;10167;42.852;23.042;2023-12-20T11:33:29;15.07;;;5.63;;
20012;SDS011;10167;42.852;23.042;2023-12-20T11:35:59;7.38;;;4.68;;
20012;SDS011;10167;42.852;23.042;2023-12-20T11:38:35;6.43;;;5.13;;
20012;SDS011;10167;42.852;23.042;2023-12-20T11:41:06;9.68;;;4.53;;
20012;SDS011;10167;42.852;23.042;2023-12-20T11:43:37;5.93;;;3.10;;
20012;SDS011;10167;42.852;23.042;2023-12-20T11:46:08;5.45;;;2.60;;
20012;SDS011;10167;42.852;23.042;2023-12-20T11:48:38;10.77;;;5.25;;
20012;SDS011;10167;42.852;23.042;2023-12-20T11:51:09;6.97;;;1.73;;
20012;SDS011;10167;42.852;23.042;2023-12-20T11:53:40;1.83;;;1.73;;
20012;SDS011;10167;42.852;23.042;2023-12-20T11:56:10;5.07;;;3.60;;
20012;SDS011;10167;42.852;23.042;2023-12-20T11:58:41;4.07;;;3.15;;
20012;SDS011;10167;42.852;23.042;2023-12-20T12:01:12;10.30;;;3.05;;
20012;SDS011;10167;42.852;23.042;2023-12-20T12:03:43;3.65;;;3.10;;
20012;SDS011;10167;42.852;23.042;2023-12-20T12:06:13;14.98;;;5.20;;
20012;SDS011;10167;42.852;23.042;2023-12-20T12:08:42;3.53;;;3.25;;
20012;SDS011;10167;42.852;23.042;2023-12-20T12:11:11;8.25;;;2.60;;
20012;SDS011;10167;42.852;23.042;2023-12-20T12:13:43;6.78;;;4.22;;
20012;SDS011;10167;42.852;23.042;2023-12-20T12:16:13;12.65;;;6.32;;
20012;SDS011;10167;42.852;23.042;2023-12-20T12:21:18;5.45;;;3.65;;
20012;SDS011;10167;42.852;23.042;2023-12-20T12:23:52;8.63;;;3.45;;
20012;SDS011;10167;42.852;23.042;2023-12-20T12:26:24;10.90;;;4.20;;
20012;SDS011;10167;42.852;23.042;2023-12-20T12:28:56;5.53;;;4.20;;
20012;SDS011;10167;42.852;23.042;2023-12-20T12:31:25;5.32;;;3.70;;
20012;SDS011;10167;42.852;23.042;2023-12-20T12:33:56;10.30;;;5.35;;
20012;SDS011;10167;42.852;23.042;2023-12-20T12:36:26;9.73;;;6.60;;
20012;SDS011;10167;42.852;23.042;2023-12-20T12:38:56;8.55;;;4.20;;
20012;SDS011;10167;42.852;23.042;2023-12-20T12:41:26;10.13;;;5.38;;
20012;SDS011;10167;42.852;23.042;2023-12-20T12:43:58;4.78;;;3.22;;
20012;SDS011;10167;42.852;23.042;2023-12-20T12:46:40;7.32;;;5.32;;
20012;SDS011;10167;42.852;23.042;2023-12-20T12:49:10;3.28;;;2.97;;
20012;SDS011;10167;42.852;23.042;2023-12-20T12:51:39;6.68;;;5.15;;
20012;SDS011;10167;42.852;23.042;2023-12-20T12:54:09;7.97;;;6.05;;
20012;SDS011;10167;42.852;23.042;2023-12-20T12:56:40;4.05;;;3.10;;
20012;SDS011;10167;42.852;23.042;2023-12-20T12:59:13;4.53;;;3.70;;
20012;SDS011;10167;42.852;23.042;2023-12-20T13:01:42;8.18;;;5.55;;
20012;SDS011;10167;42.852;23.042;2023-12-20T13:04:12;6.88;;;4.25;;
20012;SDS011;10167;42.852;23.042;2023-12-20T13:06:43;6.30;;;5.18;;
20012;SDS011;10167;42.852;23.042;2023-12-20T13:09:13;12.40;;;5.85;;
20012;SDS011;10167;42.852;23.042;2023-12-20T13:11:43;7.75;;;5.03;;
20012;SDS011;10167;42.852;23.042;2023-12-20T13:14:14;6.82;;;6.20;;
20012;SDS011;10167;42.852;23.042;2023-12-20T13:16:44;4.72;;;3.90;;
20012;SDS011;10167;42.852;23.042;2023-12-20T13:19:13;6.50;;;4.03;;
20012;SDS011;10167;42.852;23.042;2023-12-20T13:21:43;3.40;;;2.38;;
20012;SDS011;10167;42.852;23.042;2023-12-20T13:24:12;11.25;;;5.53;;
20012;SDS011;10167;42.852;23.042;2023-12-20T13:26:42;9.20;;;4.32;;
20012;SDS011;10167;42.852;23.042;2023-12-20T13:29:14;4.70;;;4.28;;
20012;SDS011;10167;42.852;23.042;2023-12-20T13:31:44;4.60;;;4.13;;
20012;SDS011;10167;42.852;23.042;2023-12-20T13:34:14;4.85;;;4.45;;
20012;SDS011;10167;42.852;23.042;2023-12-20T13:36:44;16.95;;;4.03;;
20012;SDS011;10167;42.852;23.042;2023-12-20T13:39:18;3.45;;;2.88;;
20012;SDS011;10167;42.852;23.042;2023-12-20T13:41:48;4.35;;;4.05;;
20012;SDS011;10167;42.852;23.042;2023-12-20T13:44:21;5.95;;;4.88;;
20012;SDS011;10167;42.852;23.042;2023-12-20T13:46:50;3.78;;;3.47;;
20012;SDS011;10167;42.852;23.042;2023-12-20T13:49:20;4.38;;;3.80;;
20012;SDS011;10167;42.852;23.042;2023-12-20T13:51:53;6.10;;;3.97;;
20012;SDS011;10167;42.852;23.042;2023-12-20T13:54:25;8.88;;;3.95;;
20012;SDS011;10167;42.852;23.042;2023-12-20T13:56:54;12.98;;;6.97;;
20012;SDS011;10167;42.852;23.042;2023-12-20T13:59:40;17.85;;;6.70;;
20012;SDS011;10167;42.852;23.042;2023-12-20T14:02:10;6.28;;;4.90;;
20012;SDS011;10167;42.852;23.042;2023-12-20T14:04:40;6.88;;;4.45;;
20012;SDS011;10167;42.852;23.042;2023-12-20T14:07:10;5.05;;;4.53;;
20012;SDS011;10167;42.852;23.042;2023-12-20T14:09:40;7.95;;;6.07;;
20012;SDS011;10167;42.852;23.042;2023-12-20T14:12:14;8.10;;;6.30;;
20012;SDS011;10167;42.852;23.042;2023-12-20T14:14:45;9.77;;;5.25;;
20012;SDS011;10167;42.852;23.042;2023-12-20T14:17:15;7.07;;;4.30;;
20012;SDS011;10167;42.852;23.042;2023-12-20T14:19:45;9.18;;;4.45;;
20012;SDS011;10167;42.852;23.042;2023-12-20T14:22:14;4.93;;;4.53;;
20012;SDS011;10167;42.852;23.042;2023-12-20T14:24:44;5.63;;;4.63;;
20012;SDS011;10167;42.852;23.042;2023-12-20T14:27:15;5.40;;;3.47;;
20012;SDS011;10167;42.852;23.042;2023-12-20T14:29:50;11.10;;;5.18;;
20012;SDS011;10167;42.852;23.042;2023-12-20T14:32:20;3.28;;;3.00;;
20012;SDS011;10167;42.852;23.042;2023-12-20T14:34:49;8.07;;;5.25;;
20012;SDS011;10167;42.852;23.042;2023-12-20T14:37:19;5.50;;;4.25;;
20012;SDS011;10167;42.852;23.042;2023-12-20T14:39:49;5.22;;;4.72;;
20012;SDS011;10167;42.852;23.042;2023-12-20T14:42:18;8.95;;;6.78;;
20012;SDS011;10167;42.852;23.042;2023-12-20T14:44:50;6.03;;;4.90;;
20012;SDS011;10167;42.852;23.042;2023-12-20T14:47:21;12.50;;;6.90;;
20012;SDS011;10167;42.852;23.042;2023-12-20T14:49:52;6.43;;;5.50;;
20012;SDS011;10167;42.852;23.042;2023-12-20T14:52:22;11.73;;;5.68;;
20012;SDS011;10167;42.852;23.042;2023-12-20T14:54:52;18.40;;;7.68;;
20012;SDS011;10167;42.852;23.042;2023-12-20T14:57:22;8.25;;;7.38;;
20012;SDS011;10167;42.852;23.042;2023-12-20T14:59:53;16.75;;;8.30;;